sensor_id;sensor_type;location;lat;lon;timestamp;P1;durP1;ratioP1;P2;durP2;ratioP2
1224;SDS011;602;48.000;7.840;2023-11-21T00:02:25;2.30;;;0.73;;
1224;SDS011;602;48.000;7.840;2023-11-21T00:04:53;2.40;;;0.80;;
1224;SDS011;602;48.000;7.840;2023-11-21T00:07:21;0.60;;;0.40;;
1224;SDS011;602;48.000;7.840;2023-11-21T00:09:48;1.70;;;0.80;;
1224;SDS011;602;48.000;7.840;2023-11-21T00:12:15;2.80;;;1.47;;
1224;SDS011;602;48.000;7.840;2023-11-21T00:14:41;0.70;;;0.67;;
1224;SDS011;602;48.000;7.840;2023-11-21T00:17:08;1.50;;;0.80;;
1224;SDS011;602;48.000;7.840;2023-11-21T00:19:35;0.60;;;0.60;;
1224;SDS011;602;48.000;7.840;2023-11-21T00:22:02;0.70;;;0.70;;
1224;SDS011;602;48.000;7.840;2023-11-21T00:24:30;4.37;;;1.07;;
1224;SDS011;602;48.000;7.840;2023-11-21T00:26:57;1.00;;;0.80;;
1224;SDS011;602;48.000;7.840;2023-11-21T00:29:24;1.70;;;1.00;;
1224;SDS011;602;48.000;7.840;2023-11-21T00:31:51;6.50;;;1.33;;
1224;SDS011;602;48.000;7.840;2023-11-21T00:34:18;1.90;;;0.73;;
1224;SDS011;602;48.000;7.840;2023-11-21T00:36:45;0.80;;;0.73;;
1224;SDS011;602;48.000;7.840;2023-11-21T00:39:12;5.00;;;0.83;;
1224;SDS011;602;48.000;7.840;2023-11-21T00:41:40;1.23;;;0.60;;
1224;SDS011;602;48.000;7.840;2023-11-21T00:44:07;1.20;;;1.10;;
1224;SDS011;602;48.000;7.840;2023-11-21T00:46:34;2.00;;;0.93;;
1224;SDS011;602;48.000;7.840;2023-11-21T00:49:01;0.83;;;0.67;;
1224;SDS011;602;48.000;7.840;2023-11-21T00:51:29;1.23;;;0.70;;
1224;SDS011;602;48.000;7.840;2023-11-21T00:53:56;2.70;;;0.97;;
1224;SDS011;602;48.000;7.840;2023-11-21T00:56:23;0.50;;;0.50;;
1224;SDS011;602;48.000;7.840;2023-11-21T00:58:51;1.83;;;0.50;;
1224;SDS011;602;48.000;7.840;2023-11-21T01:01:18;0.60;;;0.60;;
1224;SDS011;602;48.000;7.840;2023-11-21T01:03:45;4.00;;;0.77;;
1224;SDS011;602;48.000;7.840;2023-11-21T01:06:13;0.73;;;0.50;;
1224;SDS011;602;48.000;7.840;2023-11-21T01:08:39;9.00;;;1.10;;
1224;SDS011;602;48.000;7.840;2023-11-21T01:11:06;5.00;;;0.80;;
1224;SDS011;602;48.000;7.840;2023-11-21T01:13:35;2.20;;;0.53;;
1224;SDS011;602;48.000;7.840;2023-11-21T01:16:04;1.57;;;0.60;;
1224;SDS011;602;48.000;7.840;2023-11-21T01:18:31;7.77;;;0.70;;
1224;SDS011;602;48.000;7.840;2023-11-21T01:20:58;0.70;;;0.70;;
1224;SDS011;602;48.000;7.840;2023-11-21T01:23:25;2.00;;;1.00;;
1224;SDS011;602;48.000;7.840;2023-11-21T01:25:53;1.07;;;0.57;;
1224;SDS011;602;48.000;7.840;2023-11-21T01:28:22;0.60;;;0.50;;
1224;SDS011;602;48.000;7.840;2023-11-21T01:30:49;0.30;;;0.30;;
1224;SDS011;602;48.000;7.840;2023-11-21T01:33:17;0.40;;;0.40;;
1224;SDS011;602;48.000;7.840;2023-11-21T01:35:44;0.90;;;0.60;;
1224;SDS011;602;48.000;7.840;2023-11-21T01:38:11;0.60;;;0.60;;
1224;SDS011;602;48.000;7.840;2023-11-21T01:40:38;0.40;;;0.37;;
1224;SDS011;602;48.000;7.840;2023-11-21T01:43:05;0.63;;;0.47;;
1224;SDS011;602;48.000;7.840;2023-11-21T01:45:33;2.33;;;0.90;;
1224;SDS011;602;48.000;7.840;2023-11-21T01:48:00;0.90;;;0.67;;
1224;SDS011;602;48.000;7.840;2023-11-21T01:50:29;0.30;;;0.30;;
1224;SDS011;602;48.000;7.840;2023-11-21T01:52:56;0.60;;;0.40;;
1224;SDS011;602;48.000;7.840;2023-11-21T01:55:24;2.00;;;0.70;;
1224;SDS011;602;48.000;7.840;2023-11-21T01:57:52;0.50;;;0.43;;
1224;SDS011;602;48.000;7.840;2023-11-21T02:00:20;0.53;;;0.53;;
1224;SDS011;602;48.000;7.840;2023-11-21T02:02:49;1.50;;;0.60;;
1224;SDS011;602;48.000;7.840;2023-11-21T02:05:16;0.50;;;0.43;;
1224;SDS011;602;48.000;7.840;2023-11-21T02:07:46;0.50;;;0.40;;
1224;SDS011;602;48.000;7.840;2023-11-21T02:10:13;0.67;;;0.50;;
1224;SDS011;602;48.000;7.840;2023-11-21T02:12:41;0.40;;;0.40;;
1224;SDS011;602;48.000;7.840;2023-11-21T02:15:09;4.27;;;0.50;;
1224;SDS011;602;48.000;7.840;2023-11-21T02:17:45;2.97;;;0.50;;
1224;SDS011;602;48.000;7.840;2023-11-21T02:20:12;0.50;;;0.40;;
1224;SDS011;602;48.000;7.840;2023-11-21T02:22:40;0.90;;;0.70;;
1224;SDS011;602;48.000;7.840;2023-11-21T02:25:09;0.60;;;0.50;;
1224;SDS011;602;48.000;7.840;2023-11-21T02:27:37;0.50;;;0.40;;
1224;SDS011;602;48.000;7.840;2023-11-21T02:30:04;1.70;;;0.40;;
1224;SDS011;602;48.000;7.840;2023-11-21T02:32:32;3.90;;;1.37;;
1224;SDS011;602;48.000;7.840;2023-11-21T02:34:59;1.03;;;0.40;;
1224;SDS011;602;48.000;7.840;2023-11-21T02:37:32;0.43;;;0.43;;
1224;SDS011;602;48.000;7.840;2023-11-21T02:40:00;0.60;;;0.50;;
1224;SDS011;602;48.000;7.840;2023-11-21T02:42:30;0.50;;;0.33;;
1224;SDS011;602;48.000;7.840;2023-11-21T02:44:57;1.40;;;0.60;;
1224;SDS011;602;48.000;7.840;2023-11-21T02:47:23;0.50;;;0.50;;
1224;SDS011;602;48.000;7.840;2023-11-21T02:49:50;0.53;;;0.50;;
1224;SDS011;602;48.000;7.840;2023-11-21T02:52:18;1.60;;;0.53;;
1224;SDS011;602;48.000;7.840;2023-11-21T02:54:45;0.50;;;0.43;;
1224;SDS011;602;48.000;7.840;2023-11-21T02:57:12;1.57;;;0.50;;
1224;SDS011;602;48.000;7.840;2023-11-21T02:59:40;0.50;;;0.30;;
1224;SDS011;602;48.000;7.840;2023-11-21T03:02:07;0.40;;;0.40;;
1224;SDS011;602;48.000;7.840;2023-11-21T03:04:34;0.40;;;0.40;;
1224;SDS011;602;48.000;7.840;2023-11-21T03:07:01;0.50;;;0.50;;
1224;SDS011;602;48.000;7.840;2023-11-21T03:09:30;1.07;;;0.50;;
1224;SDS011;602;48.000;7.840;2023-11-21T03:11:57;0.93;;;0.60;;
1224;SDS011;602;48.000;7.840;2023-11-21T03:14:24;0.70;;;0.50;;
1224;SDS011;602;48.000;7.840;2023-11-21T03:16:52;0.73;;;0.63;;
1224;SDS011;602;48.000;7.840;2023-11-21T03:19:19;0.80;;;0.50;;
1224;SDS011;602;48.000;7.840;2023-11-21T03:21:45;1.90;;;0.60;;
1224;SDS011;602;48.000;7.840;2023-11-21T03:24:12;0.40;;;0.40;;
1224;SDS011;602;48.000;7.840;2023-11-21T03:26:44;0.77;;;0.60;;
1224;SDS011;602;48.000;7.840;2023-11-21T03:29:11;1.93;;;0.50;;
1224;SDS011;602;48.000;7.840;2023-11-21T03:31:38;0.43;;;0.30;;
1224;SDS011;602;48.000;7.840;2023-11-21T03:34:06;0.40;;;0.40;;
1224;SDS011;602;48.000;7.840;2023-11-21T03:36:38;0.43;;;0.40;;
1224;SDS011;602;48.000;7.840;2023-11-21T03:39:04;0.40;;;0.40;;
1224;SDS011;602;48.000;7.840;2023-11-21T03:41:31;6.10;;;1.00;;
1224;SDS011;602;48.000;7.840;2023-11-21T03:43:59;2.83;;;0.50;;
1224;SDS011;602;48.000;7.840;2023-11-21T03:46:25;0.30;;;0.30;;
1224;SDS011;602;48.000;7.840;2023-11-21T03:48:52;3.83;;;0.67;;
1224;SDS011;602;48.000;7.840;2023-11-21T03:51:22;1.10;;;0.83;;
1224;SDS011;602;48.000;7.840;2023-11-21T03:53:48;2.37;;;0.40;;
1224;SDS011;602;48.000;7.840;2023-11-21T03:56:15;0.50;;;0.40;;
1224;SDS011;602;48.000;7.840;2023-11-21T03:58:42;0.47;;;0.47;;
1224;SDS011;602;48.000;7.840;2023-11-21T04:01:09;0.50;;;0.50;;
1224;SDS011;602;48.000;7.840;2023-11-21T04:03:36;0.50;;;0.50;;
1224;SDS011;602;48.000;7.840;2023-11-21T04:06:04;0.50;;;0.50;;
1224;SDS011;602;48.000;7.840;2023-11-21T04:08:32;2.00;;;0.50;;
1224;SDS011;602;48.000;7.840;2023-11-21T04:10:59;1.00;;;0.60;;
1224;SDS011;602;48.000;7.840;2023-11-21T04:13:26;0.50;;;0.50;;
1224;SDS011;602;48.000;7.840;2023-11-21T04:15:53;0.50;;;0.50;;
1224;SDS011;602;48.000;7.840;2023-11-21T04:18:20;0.57;;;0.40;;
1224;SDS011;602;48.000;7.840;2023-11-21T04:20:48;0.50;;;0.50;;
1224;SDS011;602;48.000;7.840;2023-11-21T04:23:15;3.50;;;0.57;;
1224;SDS011;602;48.000;7.840;2023-11-21T04:25:43;0.40;;;0.40;;
1224;SDS011;602;48.000;7.840;2023-11-21T04:28:10;0.40;;;0.40;;
1224;SDS011;602;48.000;7.840;2023-11-21T04:30:38;0.83;;;0.47;;
1224;SDS011;602;48.000;7.840;2023-11-21T04:33:05;4.40;;;0.63;;
1224;SDS011;602;48.000;7.840;2023-11-21T04:35:32;0.40;;;0.40;;
1224;SDS011;602;48.000;7.840;2023-11-21T04:37:59;2.20;;;0.80;;
1224;SDS011;602;48.000;7.840;2023-11-21T04:40:26;1.37;;;0.60;;
1224;SDS011;602;48.000;7.840;2023-11-21T04:42:54;0.60;;;0.60;;
1224;SDS011;602;48.000;7.840;2023-11-21T04:45:23;0.40;;;0.40;;
1224;SDS011;602;48.000;7.840;2023-11-21T04:47:50;2.53;;;0.50;;
1224;SDS011;602;48.000;7.840;2023-11-21T04:50:17;0.40;;;0.40;;
1224;SDS011;602;48.000;7.840;2023-11-21T04:52:45;1.00;;;0.70;;
1224;SDS011;602;48.000;7.840;2023-11-21T04:55:12;6.47;;;0.83;;
1224;SDS011;602;48.000;7.840;2023-11-21T04:57:40;0.97;;;0.70;;
1224;SDS011;602;48.000;7.840;2023-11-21T05:00:09;3.13;;;0.70;;
1224;SDS011;602;48.000;7.840;2023-11-21T05:02:37;1.03;;;0.73;;
1224;SDS011;602;48.000;7.840;2023-11-21T05:05:04;0.37;;;0.37;;
1224;SDS011;602;48.000;7.840;2023-11-21T05:07:32;0.50;;;0.43;;
1224;SDS011;602;48.000;7.840;2023-11-21T05:10:01;0.43;;;0.43;;
1224;SDS011;602;48.000;7.840;2023-11-21T05:12:30;2.30;;;0.57;;
1224;SDS011;602;48.000;7.840;2023-11-21T05:19:11;1.00;;;0.50;;
1224;SDS011;602;48.000;7.840;2023-11-21T05:22:51;0.70;;;0.70;;
1224;SDS011;602;48.000;7.840;2023-11-21T05:25:53;1.43;;;0.40;;
1224;SDS011;602;48.000;7.840;2023-11-21T05:29:03;0.40;;;0.40;;
1224;SDS011;602;48.000;7.840;2023-11-21T05:31:51;0.50;;;0.50;;
1224;SDS011;602;48.000;7.840;2023-11-21T05:48:09;0.70;;;0.70;;
1224;SDS011;602;48.000;7.840;2023-11-21T05:50:58;1.17;;;0.67;;
1224;SDS011;602;48.000;7.840;2023-11-21T05:53:47;2.13;;;0.77;;
1224;SDS011;602;48.000;7.840;2023-11-21T05:56:42;0.40;;;0.40;;
1224;SDS011;602;48.000;7.840;2023-11-21T05:59:29;0.83;;;0.83;;
1224;SDS011;602;48.000;7.840;2023-11-21T06:02:56;1.20;;;0.80;;
1224;SDS011;602;48.000;7.840;2023-11-21T06:06:08;2.67;;;1.80;;
1224;SDS011;602;48.000;7.840;2023-11-21T06:08:34;2.47;;;1.60;;
1224;SDS011;602;48.000;7.840;2023-11-21T06:11:01;3.17;;;1.60;;
1224;SDS011;602;48.000;7.840;2023-11-21T06:13:28;0.70;;;0.60;;
1224;SDS011;602;48.000;7.840;2023-11-21T06:15:55;1.30;;;1.10;;
1224;SDS011;602;48.000;7.840;2023-11-21T06:18:22;0.90;;;0.90;;
1224;SDS011;602;48.000;7.840;2023-11-21T06:20:49;1.07;;;1.07;;
1224;SDS011;602;48.000;7.840;2023-11-21T06:23:19;1.43;;;1.30;;
1224;SDS011;602;48.000;7.840;2023-11-21T06:25:46;1.00;;;1.00;;
1224;SDS011;602;48.000;7.840;2023-11-21T06:28:13;1.33;;;1.20;;
1224;SDS011;602;48.000;7.840;2023-11-21T06:30:42;1.27;;;1.20;;
1224;SDS011;602;48.000;7.840;2023-11-21T06:33:10;0.97;;;0.90;;
1224;SDS011;602;48.000;7.840;2023-11-21T06:35:37;1.23;;;0.60;;
1224;SDS011;602;48.000;7.840;2023-11-21T06:38:05;1.67;;;0.87;;
1224;SDS011;602;48.000;7.840;2023-11-21T06:40:33;1.00;;;1.00;;
1224;SDS011;602;48.000;7.840;2023-11-21T06:43:00;1.53;;;1.20;;
1224;SDS011;602;48.000;7.840;2023-11-21T06:45:27;1.80;;;1.33;;
1224;SDS011;602;48.000;7.840;2023-11-21T06:47:53;1.00;;;0.80;;
1224;SDS011;602;48.000;7.840;2023-11-21T06:50:20;1.10;;;0.70;;
1224;SDS011;602;48.000;7.840;2023-11-21T06:52:47;1.30;;;1.20;;
1224;SDS011;602;48.000;7.840;2023-11-21T06:55:14;1.63;;;0.90;;
1224;SDS011;602;48.000;7.840;2023-11-21T06:57:43;1.40;;;1.00;;
1224;SDS011;602;48.000;7.840;2023-11-21T07:00:10;2.97;;;1.40;;
1224;SDS011;602;48.000;7.840;2023-11-21T07:02:38;1.23;;;1.00;;
1224;SDS011;602;48.000;7.840;2023-11-21T07:05:05;1.40;;;1.10;;
1224;SDS011;602;48.000;7.840;2023-11-21T07:07:32;1.30;;;1.20;;
1224;SDS011;602;48.000;7.840;2023-11-21T07:10:00;0.70;;;0.70;;
1224;SDS011;602;48.000;7.840;2023-11-21T07:12:28;2.17;;;1.50;;
1224;SDS011;602;48.000;7.840;2023-11-21T07:14:57;1.30;;;1.20;;
1224;SDS011;602;48.000;7.840;2023-11-21T07:17:24;1.23;;;1.13;;
1224;SDS011;602;48.000;7.840;2023-11-21T07:19:51;1.20;;;1.10;;
1224;SDS011;602;48.000;7.840;2023-11-21T07:22:18;1.37;;;1.27;;
1224;SDS011;602;48.000;7.840;2023-11-21T07:24:47;1.30;;;1.20;;
1224;SDS011;602;48.000;7.840;2023-11-21T07:27:15;1.20;;;1.10;;
1224;SDS011;602;48.000;7.840;2023-11-21T07:29:42;1.20;;;1.03;;
1224;SDS011;602;48.000;7.840;2023-11-21T07:32:11;1.30;;;1.20;;
1224;SDS011;602;48.000;7.840;2023-11-21T07:34:39;0.87;;;0.80;;
1224;SDS011;602;48.000;7.840;2023-11-21T07:37:06;0.80;;;0.80;;
1224;SDS011;602;48.000;7.840;2023-11-21T07:39:34;2.30;;;1.33;;
1224;SDS011;602;48.000;7.840;2023-11-21T07:42:00;3.70;;;1.50;;
1224;SDS011;602;48.000;7.840;2023-11-21T07:44:27;1.37;;;1.27;;
1224;SDS011;602;48.000;7.840;2023-11-21T07:46:54;0.77;;;0.77;;
1224;SDS011;602;48.000;7.840;2023-11-21T07:49:24;0.97;;;0.87;;
1224;SDS011;602;48.000;7.840;2023-11-21T07:51:51;0.80;;;0.80;;
1224;SDS011;602;48.000;7.840;2023-11-21T07:54:18;1.00;;;0.90;;
1224;SDS011;602;48.000;7.840;2023-11-21T07:56:46;1.63;;;1.00;;
1224;SDS011;602;48.000;7.840;2023-11-21T07:59:13;1.10;;;1.00;;
1224;SDS011;602;48.000;7.840;2023-11-21T08:01:40;0.67;;;0.67;;
1224;SDS011;602;48.000;7.840;2023-11-21T08:04:08;0.93;;;0.90;;
1224;SDS011;602;48.000;7.840;2023-11-21T08:06:36;1.37;;;1.27;;
1224;SDS011;602;48.000;7.840;2023-11-21T08:09:03;1.30;;;1.20;;
1224;SDS011;602;48.000;7.840;2023-11-21T08:11:30;1.07;;;1.00;;
1224;SDS011;602;48.000;7.840;2023-11-21T08:13:58;1.37;;;1.27;;
1224;SDS011;602;48.000;7.840;2023-11-21T08:16:25;1.93;;;1.47;;
1224;SDS011;602;48.000;7.840;2023-11-21T08:18:52;1.60;;;1.50;;
1224;SDS011;602;48.000;7.840;2023-11-21T08:21:19;3.67;;;1.37;;
1224;SDS011;602;48.000;7.840;2023-11-21T08:23:50;0.83;;;0.80;;
1224;SDS011;602;48.000;7.840;2023-11-21T08:26:22;2.07;;;1.07;;
1224;SDS011;602;48.000;7.840;2023-11-21T08:28:49;1.30;;;1.13;;
1224;SDS011;602;48.000;7.840;2023-11-21T08:31:22;0.97;;;0.97;;
1224;SDS011;602;48.000;7.840;2023-11-21T08:33:50;1.60;;;1.50;;
1224;SDS011;602;48.000;7.840;2023-11-21T08:36:17;1.20;;;1.00;;
1224;SDS011;602;48.000;7.840;2023-11-21T08:38:43;1.07;;;0.83;;
1224;SDS011;602;48.000;7.840;2023-11-21T08:41:11;1.57;;;1.30;;
1224;SDS011;602;48.000;7.840;2023-11-21T08:43:39;3.07;;;1.50;;
1224;SDS011;602;48.000;7.840;2023-11-21T08:46:07;2.37;;;1.50;;
1224;SDS011;602;48.000;7.840;2023-11-21T08:48:35;3.80;;;1.27;;
1224;SDS011;602;48.000;7.840;2023-11-21T08:51:02;2.30;;;1.10;;
1224;SDS011;602;48.000;7.840;2023-11-21T08:53:29;1.17;;;1.07;;
1224;SDS011;602;48.000;7.840;2023-11-21T08:55:56;1.57;;;1.40;;
1224;SDS011;602;48.000;7.840;2023-11-21T08:58:25;2.70;;;1.77;;
1224;SDS011;602;48.000;7.840;2023-11-21T09:00:51;1.73;;;1.60;;
1224;SDS011;602;48.000;7.840;2023-11-21T09:03:18;1.37;;;1.20;;
1224;SDS011;602;48.000;7.840;2023-11-21T09:05:45;1.50;;;1.37;;
1224;SDS011;602;48.000;7.840;2023-11-21T09:08:12;1.23;;;1.13;;
1224;SDS011;602;48.000;7.840;2023-11-21T09:10:39;1.17;;;1.07;;
1224;SDS011;602;48.000;7.840;2023-11-21T09:13:12;1.33;;;1.23;;
1224;SDS011;602;48.000;7.840;2023-11-21T09:15:40;1.33;;;1.23;;
1224;SDS011;602;48.000;7.840;2023-11-21T09:18:10;1.93;;;1.60;;
1224;SDS011;602;48.000;7.840;2023-11-21T09:20:36;1.40;;;1.30;;
1224;SDS011;602;48.000;7.840;2023-11-21T09:23:03;1.30;;;1.20;;
1224;SDS011;602;48.000;7.840;2023-11-21T09:25:30;1.27;;;1.00;;
1224;SDS011;602;48.000;7.840;2023-11-21T09:27:57;1.97;;;1.50;;
1224;SDS011;602;48.000;7.840;2023-11-21T09:30:24;1.33;;;1.23;;
1224;SDS011;602;48.000;7.840;2023-11-21T09:32:52;3.07;;;1.90;;
1224;SDS011;602;48.000;7.840;2023-11-21T09:35:20;1.30;;;1.20;;
1224;SDS011;602;48.000;7.840;2023-11-21T09:37:46;1.90;;;1.50;;
1224;SDS011;602;48.000;7.840;2023-11-21T09:40:13;1.47;;;1.37;;
1224;SDS011;602;48.000;7.840;2023-11-21T09:42:43;1.23;;;1.20;;
1224;SDS011;602;48.000;7.840;2023-11-21T09:45:17;1.97;;;1.87;;
1224;SDS011;602;48.000;7.840;2023-11-21T09:47:48;1.07;;;1.00;;
1224;SDS011;602;48.000;7.840;2023-11-21T09:50:19;1.50;;;1.40;;
1224;SDS011;602;48.000;7.840;2023-11-21T09:52:49;1.57;;;1.47;;
1224;SDS011;602;48.000;7.840;2023-11-21T09:55:26;1.27;;;0.77;;
1224;SDS011;602;48.000;7.840;2023-11-21T09:57:55;1.10;;;1.00;;
1224;SDS011;602;48.000;7.840;2023-11-21T10:00:23;0.90;;;0.80;;
1224;SDS011;602;48.000;7.840;2023-11-21T10:02:50;1.17;;;1.07;;
1224;SDS011;602;48.000;7.840;2023-11-21T10:05:20;0.87;;;0.87;;
1224;SDS011;602;48.000;7.840;2023-11-21T10:07:48;1.60;;;1.03;;
1224;SDS011;602;48.000;7.840;2023-11-21T10:10:17;0.63;;;0.63;;
1224;SDS011;602;48.000;7.840;2023-11-21T10:12:48;0.93;;;0.93;;
1224;SDS011;602;48.000;7.840;2023-11-21T10:15:18;0.87;;;0.87;;
1224;SDS011;602;48.000;7.840;2023-11-21T10:17:47;1.27;;;1.17;;
1224;SDS011;602;48.000;7.840;2023-11-21T10:20:15;1.57;;;1.00;;
1224;SDS011;602;48.000;7.840;2023-11-21T10:22:44;1.43;;;1.33;;
1224;SDS011;602;48.000;7.840;2023-11-21T10:25:11;1.00;;;1.00;;
1224;SDS011;602;48.000;7.840;2023-11-21T10:27:39;1.67;;;1.27;;
1224;SDS011;602;48.000;7.840;2023-11-21T10:30:08;1.33;;;0.90;;
1224;SDS011;602;48.000;7.840;2023-11-21T10:32:37;0.50;;;0.50;;
1224;SDS011;602;48.000;7.840;2023-11-21T10:35:05;2.53;;;1.03;;
1224;SDS011;602;48.000;7.840;2023-11-21T10:37:35;0.63;;;0.63;;
1224;SDS011;602;48.000;7.840;2023-11-21T10:40:06;1.13;;;1.00;;
1224;SDS011;602;48.000;7.840;2023-11-21T10:42:37;1.00;;;1.00;;
1224;SDS011;602;48.000;7.840;2023-11-21T10:45:04;2.63;;;1.07;;
1224;SDS011;602;48.000;7.840;2023-11-21T10:47:37;1.93;;;1.33;;
1224;SDS011;602;48.000;7.840;2023-11-21T10:50:05;1.00;;;0.90;;
1224;SDS011;602;48.000;7.840;2023-11-21T10:52:35;1.03;;;0.93;;
1224;SDS011;602;48.000;7.840;2023-11-21T10:55:07;2.97;;;1.40;;
1224;SDS011;602;48.000;7.840;2023-11-21T10:57:42;1.33;;;1.20;;
1224;SDS011;602;48.000;7.840;2023-11-21T11:00:12;1.20;;;1.10;;
1224;SDS011;602;48.000;7.840;2023-11-21T11:02:40;2.03;;;1.30;;
1224;SDS011;602;48.000;7.840;2023-11-21T11:05:08;1.47;;;1.37;;
1224;SDS011;602;48.000;7.840;2023-11-21T11:07:38;3.93;;;2.00;;
1224;SDS011;602;48.000;7.840;2023-11-21T11:10:10;3.33;;;1.30;;
1224;SDS011;602;48.000;7.840;2023-11-21T11:12:39;1.93;;;1.00;;
1224;SDS011;602;48.000;7.840;2023-11-21T11:15:07;0.90;;;0.87;;
1224;SDS011;602;48.000;7.840;2023-11-21T11:17:36;1.67;;;1.30;;
1224;SDS011;602;48.000;7.840;2023-11-21T11:20:05;2.23;;;1.30;;
1224;SDS011;602;48.000;7.840;2023-11-21T11:22:36;1.30;;;1.20;;
1224;SDS011;602;48.000;7.840;2023-11-21T11:25:21;1.60;;;1.50;;
1224;SDS011;602;48.000;7.840;2023-11-21T11:27:59;1.17;;;1.07;;
1224;SDS011;602;48.000;7.840;2023-11-21T11:30:38;1.23;;;1.03;;
1224;SDS011;602;48.000;7.840;2023-11-21T11:33:12;1.60;;;1.50;;
1224;SDS011;602;48.000;7.840;2023-11-21T11:35:51;3.60;;;1.50;;
1224;SDS011;602;48.000;7.840;2023-11-21T11:38:23;1.07;;;0.97;;
1224;SDS011;602;48.000;7.840;2023-11-21T11:40:53;1.23;;;1.00;;
1224;SDS011;602;48.000;7.840;2023-11-21T11:43:26;1.33;;;0.93;;
1224;SDS011;602;48.000;7.840;2023-11-21T11:45:55;0.70;;;0.67;;
1224;SDS011;602;48.000;7.840;2023-11-21T11:48:24;3.00;;;2.70;;
1224;SDS011;602;48.000;7.840;2023-11-21T11:51:04;2.17;;;1.63;;
1224;SDS011;602;48.000;7.840;2023-11-21T11:53:37;2.50;;;1.40;;
1224;SDS011;602;48.000;7.840;2023-11-21T11:56:21;1.60;;;1.50;;
1224;SDS011;602;48.000;7.840;2023-11-21T11:58:51;1.90;;;1.47;;
1224;SDS011;602;48.000;7.840;2023-11-21T12:01:18;1.13;;;1.03;;
1224;SDS011;602;48.000;7.840;2023-11-21T12:06:47;1.67;;;1.20;;
1224;SDS011;602;48.000;7.840;2023-11-21T12:09:17;1.27;;;1.17;;
1224;SDS011;602;48.000;7.840;2023-11-21T12:11:46;1.10;;;1.00;;
1224;SDS011;602;48.000;7.840;2023-11-21T12:14:15;1.07;;;1.07;;
1224;SDS011;602;48.000;7.840;2023-11-21T12:16:42;1.53;;;1.43;;
1224;SDS011;602;48.000;7.840;2023-11-21T12:19:09;1.33;;;1.20;;
1224;SDS011;602;48.000;7.840;2023-11-21T12:21:36;1.23;;;1.13;;
1224;SDS011;602;48.000;7.840;2023-11-21T12:24:04;1.50;;;1.40;;
1224;SDS011;602;48.000;7.840;2023-11-21T12:26:33;1.70;;;1.27;;
1224;SDS011;602;48.000;7.840;2023-11-21T12:29:02;1.13;;;1.03;;
1224;SDS011;602;48.000;7.840;2023-11-21T12:31:32;2.70;;;1.67;;
1224;SDS011;602;48.000;7.840;2023-11-21T12:34:00;1.87;;;1.17;;
1224;SDS011;602;48.000;7.840;2023-11-21T12:36:27;2.40;;;1.00;;
1224;SDS011;602;48.000;7.840;2023-11-21T12:38:55;1.70;;;1.60;;
1224;SDS011;602;48.000;7.840;2023-11-21T12:41:22;1.00;;;1.00;;
1224;SDS011;602;48.000;7.840;2023-11-21T12:43:49;1.70;;;1.60;;
1224;SDS011;602;48.000;7.840;2023-11-21T12:46:17;2.20;;;1.90;;
1224;SDS011;602;48.000;7.840;2023-11-21T12:48:45;2.27;;;2.03;;
1224;SDS011;602;48.000;7.840;2023-11-21T12:51:13;2.70;;;2.50;;
1224;SDS011;602;48.000;7.840;2023-11-21T12:53:41;2.73;;;1.73;;
1224;SDS011;602;48.000;7.840;2023-11-21T12:56:09;2.90;;;1.80;;
1224;SDS011;602;48.000;7.840;2023-11-21T12:58:37;2.20;;;1.90;;
1224;SDS011;602;48.000;7.840;2023-11-21T13:01:05;1.90;;;1.70;;
1224;SDS011;602;48.000;7.840;2023-11-21T13:03:38;2.20;;;2.00;;
1224;SDS011;602;48.000;7.840;2023-11-21T13:06:06;2.07;;;1.93;;
1224;SDS011;602;48.000;7.840;2023-11-21T13:08:33;2.53;;;2.27;;
1224;SDS011;602;48.000;7.840;2023-11-21T13:11:04;1.50;;;1.40;;
1224;SDS011;602;48.000;7.840;2023-11-21T13:13:32;2.30;;;2.10;;
1224;SDS011;602;48.000;7.840;2023-11-21T13:15:59;2.43;;;1.80;;
1224;SDS011;602;48.000;7.840;2023-11-21T13:18:29;2.83;;;1.63;;
1224;SDS011;602;48.000;7.840;2023-11-21T13:20:58;2.13;;;1.93;;
1224;SDS011;602;48.000;7.840;2023-11-21T13:23:28;1.73;;;1.63;;
1224;SDS011;602;48.000;7.840;2023-11-21T13:25:55;1.87;;;1.73;;
1224;SDS011;602;48.000;7.840;2023-11-21T13:28:23;1.60;;;1.50;;
1224;SDS011;602;48.000;7.840;2023-11-21T13:30:56;2.37;;;1.53;;
1224;SDS011;602;48.000;7.840;2023-11-21T13:33:27;2.90;;;1.70;;
1224;SDS011;602;48.000;7.840;2023-11-21T13:35:55;2.57;;;1.30;;
1224;SDS011;602;48.000;7.840;2023-11-21T13:38:24;1.50;;;1.40;;
1224;SDS011;602;48.000;7.840;2023-11-21T13:40:57;1.57;;;1.47;;
1224;SDS011;602;48.000;7.840;2023-11-21T13:43:24;1.40;;;1.03;;
1224;SDS011;602;48.000;7.840;2023-11-21T13:45:53;1.83;;;1.40;;
1224;SDS011;602;48.000;7.840;2023-11-21T13:48:25;1.80;;;1.67;;
1224;SDS011;602;48.000;7.840;2023-11-21T13:50:59;1.67;;;1.57;;
1224;SDS011;602;48.000;7.840;2023-11-21T13:53:36;3.00;;;1.63;;
1224;SDS011;602;48.000;7.840;2023-11-21T13:56:04;2.20;;;2.00;;
1224;SDS011;602;48.000;7.840;2023-11-21T13:58:33;2.00;;;1.70;;
1224;SDS011;602;48.000;7.840;2023-11-21T14:01:09;2.07;;;1.27;;
1224;SDS011;602;48.000;7.840;2023-11-21T14:03:54;1.63;;;1.53;;
1224;SDS011;602;48.000;7.840;2023-11-21T14:06:26;1.63;;;1.33;;
1224;SDS011;602;48.000;7.840;2023-11-21T14:09:00;2.03;;;1.83;;
1224;SDS011;602;48.000;7.840;2023-11-21T14:11:31;3.43;;;1.80;;
1224;SDS011;602;48.000;7.840;2023-11-21T14:13:59;2.17;;;1.70;;
1224;SDS011;602;48.000;7.840;2023-11-21T14:16:27;2.40;;;1.83;;
1224;SDS011;602;48.000;7.840;2023-11-21T14:18:54;1.80;;;1.60;;
1224;SDS011;602;48.000;7.840;2023-11-21T14:21:26;6.93;;;1.80;;
1224;SDS011;602;48.000;7.840;2023-11-21T14:23:53;1.40;;;1.30;;
1224;SDS011;602;48.000;7.840;2023-11-21T14:26:22;1.53;;;1.43;;
1224;SDS011;602;48.000;7.840;2023-11-21T14:28:49;4.03;;;2.47;;
1224;SDS011;602;48.000;7.840;2023-11-21T14:31:18;3.10;;;2.30;;
1224;SDS011;602;48.000;7.840;2023-11-21T14:33:45;2.33;;;2.13;;
1224;SDS011;602;48.000;7.840;2023-11-21T14:36:12;3.50;;;2.20;;
1224;SDS011;602;48.000;7.840;2023-11-21T14:38:42;1.63;;;1.53;;
1224;SDS011;602;48.000;7.840;2023-11-21T14:41:09;2.13;;;1.77;;
1224;SDS011;602;48.000;7.840;2023-11-21T14:43:37;2.00;;;1.90;;
1224;SDS011;602;48.000;7.840;2023-11-21T14:46:04;3.00;;;1.67;;
1224;SDS011;602;48.000;7.840;2023-11-21T14:48:35;2.63;;;2.03;;
1224;SDS011;602;48.000;7.840;2023-11-21T14:51:07;1.80;;;1.30;;
1224;SDS011;602;48.000;7.840;2023-11-21T14:54:00;2.23;;;1.70;;
1224;SDS011;602;48.000;7.840;2023-11-21T14:56:31;2.77;;;2.37;;
1224;SDS011;602;48.000;7.840;2023-11-21T14:59:01;2.40;;;1.53;;
1224;SDS011;602;48.000;7.840;2023-11-21T15:01:34;3.67;;;2.30;;
1224;SDS011;602;48.000;7.840;2023-11-21T15:04:18;2.07;;;1.70;;
1224;SDS011;602;48.000;7.840;2023-11-21T15:06:56;1.93;;;1.50;;
1224;SDS011;602;48.000;7.840;2023-11-21T15:09:23;2.20;;;1.77;;
1224;SDS011;602;48.000;7.840;2023-11-21T15:14:37;1.77;;;1.67;;
1224;SDS011;602;48.000;7.840;2023-11-21T15:17:04;2.30;;;1.90;;
1224;SDS011;602;48.000;7.840;2023-11-21T15:19:31;1.83;;;1.73;;
1224;SDS011;602;48.000;7.840;2023-11-21T15:21:58;1.80;;;1.70;;
1224;SDS011;602;48.000;7.840;2023-11-21T15:24:25;3.13;;;2.33;;
1224;SDS011;602;48.000;7.840;2023-11-21T15:26:52;2.20;;;1.43;;
1224;SDS011;602;48.000;7.840;2023-11-21T15:29:19;2.63;;;2.10;;
1224;SDS011;602;48.000;7.840;2023-11-21T15:31:48;2.87;;;2.30;;
1224;SDS011;602;48.000;7.840;2023-11-21T15:34:15;2.63;;;2.20;;
1224;SDS011;602;48.000;7.840;2023-11-21T15:36:42;4.90;;;1.80;;
1224;SDS011;602;48.000;7.840;2023-11-21T15:39:09;2.03;;;1.73;;
1224;SDS011;602;48.000;7.840;2023-11-21T15:41:35;2.10;;;1.23;;
1224;SDS011;602;48.000;7.840;2023-11-21T15:44:04;2.70;;;1.87;;
1224;SDS011;602;48.000;7.840;2023-11-21T15:46:35;2.13;;;1.93;;
1224;SDS011;602;48.000;7.840;2023-11-21T15:49:04;2.17;;;1.90;;
1224;SDS011;602;48.000;7.840;2023-11-21T15:51:37;1.73;;;1.30;;
1224;SDS011;602;48.000;7.840;2023-11-21T15:54:05;1.50;;;1.40;;
1224;SDS011;602;48.000;7.840;2023-11-21T15:56:32;1.97;;;1.77;;
1224;SDS011;602;48.000;7.840;2023-11-21T15:59:00;2.53;;;2.13;;
1224;SDS011;602;48.000;7.840;2023-11-21T16:01:28;1.53;;;1.43;;
1224;SDS011;602;48.000;7.840;2023-11-21T16:03:56;1.37;;;1.27;;
1224;SDS011;602;48.000;7.840;2023-11-21T16:06:27;1.73;;;1.63;;
1224;SDS011;602;48.000;7.840;2023-11-21T16:08:54;2.37;;;1.60;;